AirNav   Air Wisconsin Up To $57,000 Bonus
 
 1311 users online  

SC34 Iva Field Airport
Iva, South Carolina, USA

GOING TO IVA?


FAA INFORMATION EFFECTIVE 04 NOVEMBER 2021

Location

FAA Identifier: SC34
Lat/Long: 34-17-49.3870N 082-41-01.4760W
34-17.823117N 082-41.024600W
34.2970519,-82.6837433
(estimated)
Elevation: 660 ft. / 201 m (estimated)
Variation: 03W (1990)
From city: 1 mile NE of IVA, SC
Time zone: UTC -4 (UTC -5 during Standard Time)
Zip code: 29655

Airport Operations

Airport use: Private use. Permission required prior to landing
Activation date: 05/1990
Control tower: no
ARTCC: ATLANTA CENTER
FSS: ANDERSON FLIGHT SERVICE STATION
Attendance: UNATNDD
Segmented circle: no

Airport Communications

WX ASOS at AND (12 nm N): 120.675 (864-226-9522)
WX AWOS-3 at EBA (14 nm SW): 118.15 (706-283-8133)

Nearby radio navigation aids

VOR radial/distance  VOR name  Freq  Var
ELWr146/8.9ELECTRIC CITY VORTAC108.6000E
GRDr277/26.4GREENWOOD VORTAC115.5001W
AHNr057/38.1ATHENS VOR/DME109.6000E
ODFr128/38.7FOOTHILLS VOR/DME113.4000E

 
NDB name  Hdg/Dist  Freq  Var  ID
CORONACA282/29.723907WGIW --. .. .--

Airport Services

Runway Information

Runway 18/36

Dimensions: 2900 x 50 ft. / 884 x 15 m
Surface: turf
RUNWAY 18  RUNWAY 36
Traffic pattern: leftleft
Obstructions: 50 ft. trees, 300 ft. from runwaynone

Airport Ownership and Management from official FAA records

Ownership: Privately-owned
Owner: WILLIAM EPSTEIN
5739 AIRPORT ROAD
ANDERSON, SC 29626
Phone 864-933-1992
Manager: WILLIAM EPSTEIN
5739 AIRPORT ROAD
ANDERSON, SC 29626
Phone 864-933-1992

Additional Remarks

OWNER DESIRES ARPT NOT BE CHARTED.
FOR CD CTC ATLANTA ARTCC AT 770-210-7692.

Instrument Procedures

There are no published instrument procedures at SC34.

Some nearby airports with instrument procedures:

KAND - Anderson Regional Airport (12 nm N)
KEBA - Elbert County Airport-Patz Field (14 nm SW)
18A - Franklin-Hart Airport (22 nm W)
KCEU - Oconee County Regional Airport (25 nm NW)
KGRD - Greenwood County Airport (26 nm E)
 
Loc | Ops | Rwys | IFR | FBO | Links
Com | Nav | Svcs | Stats | Notes
Area around SC34 (Iva Field Airport)
 
Road maps at: MapQuest Bing Google
 
Aerial photo
No photo
 
Sectional chart

 
Airport distance calculator
Flying to Iva Field Airport? Find the distance to fly.

From to SC34

Sunrise and sunset
Times for 28-Nov-2021
 Local
(UTC-5)
 Zulu
(UTC)
Morning civil twilight06:5011:50
Sunrise07:1712:17
Sunset17:2022:20
Evening civil twilight17:4822:48

Current date and time
Zulu (UTC)  28-Nov-2021 22:27:39
Local (UTC-5)  28-Nov-2021 17:27:39
 
METAR
KAND 
12nm N 
282156Z AUTO 00000KT 10SM CLR 14/01 A2990 RMK AO2 SLP124 T01390011
K18A 
22nm W 
282210Z AUTO 25005KT 10SM CLR 14/01 A2992 RMK AO2 T01430005
KCEU 
24nm NW 
282154Z AUTO 00000KT 10SM CLR 16/01 A2990 RMK AO2 SLP121 T01560006
TAF
KAND 
12nm N 
281720Z 2818/2918 25006KT P6SM BKN250 FM290000 29006KT P6SM SCT250 FM291300 01007KT P6SM FEW250
NOTAMs
Click for the latest NOTAMs
NOTAMs are issued by the DoD/FAA and will open in a separate window not controlled by AirNav.

 

 
 

Would you like to see your business listed on this page?

 If your business provides an interesting product or service to pilots, flight crews, aircraft, or users of the Iva Field Airport, you should consider listing it here.  To start the listing process, click on the button below
 
Add a business
 

Other Pages about Iva Field Airport

Update a link
 
Copyright © AirNav, LLC. All rights reserved. Privacy Policy  Contact